createdAt,value
2022-09-28T00:00:58.013Z,16.63
2022-09-28T00:03:27.961Z,17.27
2022-09-28T00:06:01.775Z,15.33
2022-09-28T00:08:29.153Z,15.77
2022-09-28T00:10:56.821Z,15.97
2022-09-28T00:13:24.525Z,16.63
2022-09-28T00:16:00.280Z,15.87
2022-09-28T00:18:29.129Z,15.80
2022-09-28T00:21:05.565Z,15.17
2022-09-28T00:23:33.477Z,15.50
2022-09-28T00:26:04.302Z,15.67
2022-09-28T00:28:31.921Z,15.53
2022-09-28T00:30:59.292Z,15.57
2022-09-28T00:33:26.705Z,16.13
2022-09-28T00:35:58.942Z,16.37
2022-09-28T00:38:30.108Z,16.33
2022-09-28T00:40:57.657Z,15.83
2022-09-28T00:43:25.533Z,16.13
2022-09-28T00:45:58.035Z,15.37
2022-09-28T00:48:29.032Z,15.57
2022-09-28T00:50:58.566Z,16.10
2022-09-28T00:53:27.864Z,16.20
2022-09-28T00:55:56.786Z,15.90
2022-09-28T00:58:27.401Z,14.70
2022-09-28T01:00:56.379Z,14.43
2022-09-28T01:03:23.931Z,14.00
2022-09-28T01:05:51.832Z,13.90
2022-09-28T01:08:21.984Z,13.77
2022-09-28T01:10:50.649Z,14.50
2022-09-28T01:13:20.934Z,13.83
2022-09-28T01:15:59.435Z,14.87
2022-09-28T01:18:32.558Z,14.33
2022-09-28T01:21:02.366Z,14.53
2022-09-28T01:23:44.557Z,14.37
2022-09-28T01:26:45.921Z,13.70
2022-09-28T01:29:18.793Z,14.37
2022-09-28T01:31:49.786Z,13.83
2022-09-28T01:34:20.973Z,13.43
2022-09-28T01:36:50.796Z,14.63
2022-09-28T01:39:20.985Z,14.80
2022-09-28T01:41:53.089Z,15.00
2022-09-28T01:44:22.162Z,14.40
2022-09-28T01:46:50.356Z,14.67
2022-09-28T01:49:19.968Z,15.10
2022-09-28T01:51:52.004Z,14.73
2022-09-28T01:54:23.354Z,15.17
2022-09-28T01:56:53.896Z,13.50
2022-09-28T01:59:24.142Z,13.57
2022-09-28T02:01:54.738Z,14.00
2022-09-28T02:04:24.789Z,14.13
2022-09-28T02:06:55.320Z,13.87
2022-09-28T02:09:28.463Z,14.57
2022-09-28T02:12:02.849Z,15.73
2022-09-28T02:14:31.572Z,14.83
2022-09-28T02:17:01.898Z,14.83
2022-09-28T02:19:32.738Z,14.20
2022-09-28T02:22:04.238Z,14.10
2022-09-28T02:24:37.914Z,13.43
2022-09-28T02:27:10.953Z,14.10
2022-09-28T02:29:38.299Z,14.50
2022-09-28T02:32:05.865Z,13.47
2022-09-28T02:34:33.969Z,13.97
2022-09-28T02:37:02.184Z,13.90
2022-09-28T02:39:30.056Z,13.70
2022-09-28T02:42:04.059Z,13.90
2022-09-28T02:44:44.668Z,14.03
2022-09-28T02:47:21.757Z,13.07
2022-09-28T02:49:52.578Z,13.27
2022-09-28T02:52:32.792Z,13.67
2022-09-28T02:55:13.731Z,14.00
2022-09-28T02:57:49.001Z,13.83
2022-09-28T03:00:20.124Z,13.70
2022-09-28T03:02:59.236Z,13.63
2022-09-28T03:05:32.719Z,14.03
2022-09-28T03:08:02.142Z,13.77
2022-09-28T03:10:35.860Z,14.27
2022-09-28T03:13:04.439Z,13.33
2022-09-28T03:15:34.641Z,13.00
2022-09-28T03:18:02.028Z,12.47
2022-09-28T03:20:31.189Z,13.20
2022-09-28T03:25:46.053Z,13.20
2022-09-28T03:28:13.428Z,12.57
2022-09-28T03:30:43.397Z,13.17
2022-09-28T03:33:11.010Z,13.40
2022-09-28T03:35:39.089Z,13.50
2022-09-28T03:38:06.549Z,13.47
2022-09-28T03:40:37.906Z,13.07
2022-09-28T03:43:05.296Z,13.30
2022-09-28T03:45:32.855Z,13.70
2022-09-28T03:48:01.902Z,14.00
2022-09-28T03:50:29.593Z,14.53
2022-09-28T03:52:56.937Z,14.27
2022-09-28T03:55:24.326Z,15.07
2022-09-28T03:57:55.577Z,14.90
2022-09-28T04:00:23.133Z,15.77
2022-09-28T04:02:50.735Z,16.90
2022-09-28T04:05:19.412Z,17.13
2022-09-28T04:07:48.314Z,17.23
2022-09-28T04:10:15.850Z,18.57
2022-09-28T04:12:43.262Z,20.80
2022-09-28T04:15:11.438Z,22.13
2022-09-28T04:17:40.360Z,22.27
2022-09-28T04:20:14.114Z,24.63
2022-09-28T04:22:49.465Z,25.80
2022-09-28T04:25:17.378Z,24.53
2022-09-28T04:28:07.446Z,25.30
2022-09-28T04:30:34.985Z,25.47
2022-09-28T04:33:02.432Z,24.47
2022-09-28T04:35:31.058Z,25.13
2022-09-28T04:37:59.811Z,25.63
2022-09-28T04:40:27.619Z,24.57
2022-09-28T04:42:55.925Z,25.53
2022-09-28T04:45:25.908Z,24.87
2022-09-28T04:47:55.306Z,24.73
2022-09-28T04:50:38.201Z,24.00
2022-09-28T04:53:22.643Z,24.70
2022-09-28T04:55:57.675Z,24.03
2022-09-28T04:58:25.213Z,24.73
2022-09-28T05:00:54.139Z,25.47
2022-09-28T05:03:42.081Z,25.67
2022-09-28T05:06:22.893Z,24.87
2022-09-28T05:08:58.139Z,24.77
2022-09-28T05:11:25.570Z,25.87
2022-09-28T05:13:52.940Z,24.67
2022-09-28T05:16:20.885Z,25.13
2022-09-28T05:19:08.233Z,25.37
2022-09-28T05:21:35.561Z,25.87
2022-09-28T05:24:07.373Z,25.83
2022-09-28T05:26:36.669Z,26.30
2022-09-28T05:29:04.994Z,26.57
2022-09-28T05:32:02.129Z,25.70
2022-09-28T05:34:36.628Z,27.13
2022-09-28T05:37:04.089Z,27.17
2022-09-28T05:39:32.957Z,26.27
2022-09-28T05:42:00.321Z,26.93
2022-09-28T05:44:27.733Z,27.00
2022-09-28T05:46:55.653Z,27.70
2022-09-28T05:49:24.198Z,27.03
2022-09-28T05:51:51.526Z,26.77
2022-09-28T05:54:18.985Z,26.87
2022-09-28T05:56:48.837Z,26.00
2022-09-28T05:59:17.263Z,27.90
2022-09-28T06:01:44.680Z,29.20
2022-09-28T06:04:12.787Z,27.93
2022-09-28T06:06:42.602Z,27.90
2022-09-28T06:09:13.157Z,28.63
2022-09-28T06:12:00.245Z,27.20
2022-09-28T06:14:35.766Z,28.03
2022-09-28T06:17:03.177Z,28.60
2022-09-28T06:19:30.709Z,28.53
2022-09-28T06:22:08.657Z,29.03
2022-09-28T06:24:44.364Z,28.10
2022-09-28T06:27:13.060Z,27.97
2022-09-28T06:29:40.409Z,28.60
2022-09-28T06:32:08.301Z,27.50
2022-09-28T06:34:37.853Z,28.17
2022-09-28T06:37:05.237Z,27.03
2022-09-28T06:39:33.212Z,28.83
2022-09-28T06:42:04.346Z,27.67
2022-09-28T06:44:52.989Z,28.17
2022-09-28T06:47:39.071Z,27.07
2022-09-28T06:50:22.182Z,27.73
2022-09-28T06:52:54.897Z,27.87
2022-09-28T06:55:48.979Z,28.83
2022-09-28T06:58:19.444Z,28.40
2022-09-28T07:00:48.841Z,28.13
2022-09-28T07:03:17.806Z,29.80
2022-09-28T07:06:20.565Z,29.23
2022-09-28T07:09:29.841Z,29.67
2022-09-28T07:12:18.110Z,30.00
2022-09-28T07:14:59.017Z,28.60
2022-09-28T07:17:30.063Z,28.40
2022-09-28T07:20:10.518Z,29.70
2022-09-28T07:22:45.078Z,29.37
2022-09-28T07:25:18.410Z,28.93
2022-09-28T07:28:09.369Z,29.07
2022-09-28T07:30:51.111Z,29.53
2022-09-28T07:33:39.741Z,29.13
2022-09-28T07:36:23.601Z,29.77
2022-09-28T07:38:53.989Z,28.60
2022-09-28T07:41:32.094Z,29.07
2022-09-28T07:44:05.351Z,28.83
2022-09-28T07:46:34.242Z,28.33
2022-09-28T07:49:11.356Z,29.63
2022-09-28T07:52:02.329Z,30.03
2022-09-28T07:54:30.173Z,29.37
2022-09-28T07:57:25.639Z,29.33
2022-09-28T08:00:16.779Z,29.90
2022-09-28T08:02:48.207Z,28.10
2022-09-28T08:05:26.957Z,28.73
2022-09-28T08:07:57.602Z,27.40
2022-09-28T08:10:25.081Z,27.00
2022-09-28T08:13:26.890Z,26.57
2022-09-28T08:16:16.102Z,24.67
2022-09-28T08:19:07.566Z,25.70
2022-09-28T08:21:47.215Z,25.40
2022-09-28T08:24:16.398Z,27.30
2022-09-28T08:26:44.638Z,27.40
2022-09-28T08:29:15.201Z,26.37
2022-09-28T08:32:01.577Z,24.60
2022-09-28T08:34:35.973Z,25.37
2022-09-28T08:37:26.393Z,25.47
2022-09-28T08:40:17.481Z,25.97
2022-09-28T08:43:25.557Z,25.50
2022-09-28T08:46:07.913Z,27.30
2022-09-28T08:49:20.666Z,26.87
2022-09-28T08:52:07.072Z,26.80
2022-09-28T08:54:50.478Z,27.20
2022-09-28T08:57:28.745Z,26.87
2022-09-28T08:59:58.385Z,27.27
2022-09-28T09:02:33.208Z,26.20
2022-09-28T09:05:21.964Z,24.97
2022-09-28T09:08:13.890Z,24.97
2022-09-28T09:10:51.674Z,24.73
2022-09-28T09:13:56.273Z,25.07
2022-09-28T09:16:33.908Z,24.67
2022-09-28T09:19:30.406Z,23.70
2022-09-28T09:22:17.820Z,23.60
2022-09-28T09:24:50.689Z,23.20
2022-09-28T09:27:41.934Z,22.57
2022-09-28T09:30:11.793Z,23.07
2022-09-28T09:32:49.369Z,22.57
2022-09-28T09:35:33.215Z,23.20
2022-09-28T09:38:36.564Z,22.63
2022-09-28T09:41:30.329Z,22.67
2022-09-28T09:44:29.529Z,22.47
2022-09-28T09:47:10.722Z,22.67
2022-09-28T09:49:49.766Z,23.40
2022-09-28T09:53:12.313Z,24.23
2022-09-28T09:56:53.754Z,23.33
2022-09-28T10:00:35.601Z,23.80
2022-09-28T10:04:16.865Z,23.20
2022-09-28T10:07:04.897Z,21.83
2022-09-28T10:09:37.905Z,22.10
2022-09-28T10:12:23.626Z,22.57
2022-09-28T10:14:52.345Z,22.10
2022-09-28T10:17:26.687Z,22.30
2022-09-28T10:20:13.714Z,22.20
2022-09-28T10:23:25.325Z,22.40
2022-09-28T10:25:55.246Z,22.60
2022-09-28T10:28:26.628Z,22.87
2022-09-28T10:30:54.129Z,23.47
2022-09-28T10:33:30.281Z,23.03
2022-09-28T10:35:57.778Z,23.13
2022-09-28T10:38:26.893Z,24.40
2022-09-28T10:41:10.813Z,23.80
2022-09-28T10:44:05.918Z,23.37
2022-09-28T10:47:34.025Z,23.20
2022-09-28T10:51:15.140Z,23.60
2022-09-28T10:54:56.306Z,23.00
2022-09-28T10:58:37.973Z,23.30
2022-09-28T11:02:19.326Z,23.77
2022-09-28T11:06:00.966Z,23.20
2022-09-28T11:09:45.576Z,24.07
2022-09-28T11:13:27.858Z,23.43
2022-09-28T11:17:09.017Z,22.20
2022-09-28T11:20:51.622Z,21.87
2022-09-28T11:24:33.405Z,21.87
2022-09-28T11:28:14.637Z,20.57
2022-09-28T11:31:55.584Z,20.50
2022-09-28T11:35:37.123Z,19.80
2022-09-28T11:39:19.044Z,19.77
2022-09-28T11:43:00.651Z,19.17
2022-09-28T11:46:41.979Z,19.30
2022-09-28T11:50:24.534Z,19.30
2022-09-28T11:53:21.086Z,20.10
2022-09-28T11:55:54.090Z,19.30
2022-09-28T11:58:27.140Z,19.57
2022-09-28T12:00:58.436Z,19.37
2022-09-28T12:03:40.277Z,19.97
2022-09-28T12:06:11.789Z,19.83
2022-09-28T12:08:42.290Z,19.90
2022-09-28T12:11:12.370Z,20.77
2022-09-28T12:14:19.973Z,19.13
2022-09-28T12:17:05.860Z,19.63
2022-09-28T12:19:38.588Z,18.83
2022-09-28T12:22:12.081Z,19.10
2022-09-28T12:24:43.449Z,19.20
2022-09-28T12:27:15.225Z,19.40
2022-09-28T12:29:47.313Z,19.47
2022-09-28T12:32:29.445Z,20.20
2022-09-28T12:34:57.001Z,20.00
2022-09-28T12:37:36.745Z,20.00
2022-09-28T12:40:27.319Z,19.70
2022-09-28T12:43:20.023Z,21.10
2022-09-28T12:46:11.549Z,23.37
2022-09-28T12:49:40.965Z,25.23
2022-09-28T12:51:49.115Z,24.10
2022-09-28T12:54:31.506Z,23.20
2022-09-28T12:57:07.934Z,21.73
2022-09-28T12:59:39.478Z,22.43
2022-09-28T13:02:36.772Z,21.90
2022-09-28T13:05:17.418Z,20.93
2022-09-28T13:07:49.870Z,20.83
2022-09-28T13:10:21.699Z,20.27
2022-09-28T13:13:03.126Z,20.00
2022-09-28T13:15:37.653Z,20.40
2022-09-28T13:18:10.428Z,21.00
2022-09-28T13:20:48.411Z,22.27
2022-09-28T13:23:19.698Z,22.83
2022-09-28T13:25:51.961Z,23.27
2022-09-28T13:28:26.202Z,23.30
2022-09-28T13:30:56.188Z,23.63
2022-09-28T13:33:30.926Z,23.40
2022-09-28T13:35:58.334Z,23.77
2022-09-28T13:38:49.392Z,24.40
2022-09-28T13:41:19.551Z,24.57
2022-09-28T13:44:16.385Z,23.83
2022-09-28T13:46:50.385Z,23.67
2022-09-28T13:49:23.886Z,23.70
2022-09-28T13:54:57.491Z,23.60
2022-09-28T13:57:28.814Z,24.40
2022-09-28T14:00:10.355Z,24.07
2022-09-28T14:02:43.832Z,23.70
2022-09-28T14:05:41.568Z,23.60
2022-09-28T14:08:28.320Z,23.30
2022-09-28T14:10:56.605Z,24.23
2022-09-28T14:14:00.489Z,24.77
2022-09-28T14:16:31.770Z,24.57
2022-09-28T14:19:02.255Z,23.33
2022-09-28T14:21:54.109Z,23.73
2022-09-28T14:24:32.769Z,24.47
2022-09-28T14:27:36.892Z,24.37
2022-09-28T14:30:18.573Z,24.03
2022-09-28T14:32:53.553Z,24.40
2022-09-28T14:35:31.167Z,23.20
2022-09-28T14:38:19.502Z,22.63
2022-09-28T14:41:10.957Z,22.93
2022-09-28T14:43:53.865Z,23.23
2022-09-28T14:46:30.785Z,24.10
2022-09-28T14:49:03.588Z,21.77
2022-09-28T14:52:02.729Z,22.20
2022-09-28T14:54:39.468Z,22.83
2022-09-28T14:57:12.683Z,23.03
2022-09-28T14:59:44.077Z,21.87
2022-09-28T15:02:17.338Z,21.97
2022-09-28T15:04:48.008Z,22.43
2022-09-28T15:07:21.340Z,21.90
2022-09-28T15:09:50.535Z,21.53
2022-09-28T15:12:19.718Z,22.23
2022-09-28T15:14:50.396Z,21.37
2022-09-28T15:17:21.738Z,22.07
2022-09-28T15:19:54.812Z,21.70
2022-09-28T15:22:22.733Z,21.03
2022-09-28T15:25:00.016Z,21.83
2022-09-28T15:27:35.294Z,20.33
2022-09-28T15:30:24.239Z,19.47
2022-09-28T15:32:53.889Z,20.07
2022-09-28T15:35:24.047Z,19.33
2022-09-28T15:37:52.244Z,19.67
2022-09-28T15:40:25.290Z,19.23
2022-09-28T15:42:57.062Z,19.83
2022-09-28T15:45:28.540Z,20.00
2022-09-28T15:48:18.268Z,19.83
2022-09-28T15:50:58.134Z,19.53
2022-09-28T15:53:25.694Z,18.93
2022-09-28T15:55:55.642Z,18.97
2022-09-28T15:58:24.461Z,19.10
2022-09-28T16:01:12.813Z,18.77
2022-09-28T16:03:40.341Z,18.90
2022-09-28T16:06:10.584Z,18.70
2022-09-28T16:08:39.689Z,18.80
2022-09-28T16:11:11.998Z,19.00
2022-09-28T16:13:47.321Z,18.10
2022-09-28T16:16:16.373Z,18.57
2022-09-28T16:18:48.281Z,19.97
2022-09-28T16:21:31.477Z,19.47
2022-09-28T16:23:59.254Z,21.47
2022-09-28T16:26:31.072Z,22.00
2022-09-28T16:28:59.023Z,22.33
2022-09-28T16:31:34.254Z,21.43
2022-09-28T16:34:11.754Z,21.53
2022-09-28T16:36:45.251Z,22.20
2022-09-28T16:39:13.426Z,20.80
2022-09-28T16:41:41.631Z,21.00
2022-09-28T16:44:15.989Z,21.50
2022-09-28T16:46:44.582Z,21.30
2022-09-28T16:49:18.613Z,20.90
2022-09-28T16:51:48.177Z,21.97
2022-09-28T16:54:35.218Z,21.37
2022-09-28T16:57:03.174Z,20.93
2022-09-28T16:59:31.125Z,21.87
2022-09-28T17:01:58.844Z,21.57
2022-09-28T17:04:26.989Z,24.13
2022-09-28T17:06:56.651Z,24.00
2022-09-28T17:09:26.329Z,22.70
2022-09-28T17:11:56.867Z,21.43
2022-09-28T17:15:19.557Z,21.53
2022-09-28T17:19:00.833Z,21.30
2022-09-28T17:22:42.386Z,20.93
2022-09-28T17:26:23.938Z,21.87
2022-09-28T17:30:05.405Z,22.43
2022-09-28T17:33:47.215Z,20.77
2022-09-28T17:37:28.941Z,22.13
2022-09-28T17:41:10.151Z,25.47
2022-09-28T17:44:51.551Z,24.90
2022-09-28T17:48:33.252Z,22.10
2022-09-28T17:52:14.622Z,21.63
2022-09-28T17:55:55.965Z,21.67
2022-09-28T17:59:37.242Z,22.00
2022-09-28T18:03:19.021Z,20.33
2022-09-28T18:06:59.774Z,19.17
2022-09-28T18:10:41.196Z,24.70
2022-09-28T18:14:22.852Z,21.83
2022-09-28T18:18:04.360Z,23.63
2022-09-28T18:21:45.717Z,22.23
2022-09-28T18:25:27.153Z,22.07
2022-09-28T18:29:08.654Z,21.47
2022-09-28T18:32:50.217Z,21.53
2022-09-28T18:36:31.886Z,19.30
2022-09-28T18:40:12.625Z,21.50
2022-09-28T18:43:53.874Z,21.00
2022-09-28T18:47:35.415Z,21.53
2022-09-28T18:51:17.149Z,21.63
2022-09-28T18:54:58.356Z,22.30
2022-09-28T18:58:39.700Z,23.30
2022-09-28T19:02:21.321Z,23.20
2022-09-28T19:06:02.177Z,22.67
2022-09-28T19:09:43.467Z,22.13
2022-09-28T19:12:40.373Z,21.40
2022-09-28T19:15:08.689Z,21.60
2022-09-28T19:17:36.061Z,21.80
2022-09-28T19:20:03.574Z,23.13
2022-09-28T19:22:31.257Z,23.10
2022-09-28T19:24:58.598Z,23.13
2022-09-28T19:27:25.964Z,22.30
2022-09-28T19:29:54.644Z,22.70
2022-09-28T19:32:21.985Z,22.50
2022-09-28T19:34:49.497Z,22.20
2022-09-28T19:37:17.028Z,22.80
2022-09-28T19:39:45.259Z,23.13
2022-09-28T19:42:12.582Z,22.73
2022-09-28T19:44:40.232Z,23.10
2022-09-28T19:47:11.461Z,23.53
2022-09-28T19:49:40.093Z,23.10
2022-09-28T19:52:13.467Z,23.47
2022-09-28T19:54:43.698Z,22.37
2022-09-28T19:57:11.524Z,22.10
2022-09-28T19:59:39.063Z,23.80
2022-09-28T20:02:09.144Z,22.90
2022-09-28T20:04:36.500Z,23.03
2022-09-28T20:07:04.171Z,22.20
2022-09-28T20:09:32.342Z,22.50
2022-09-28T20:11:59.726Z,23.00
2022-09-28T20:14:32.014Z,23.10
2022-09-28T20:17:00.325Z,23.33
2022-09-28T20:19:29.038Z,23.13
2022-09-28T20:21:58.528Z,24.10
2022-09-28T20:24:28.596Z,23.77
2022-09-28T20:26:55.954Z,23.23
2022-09-28T20:29:24.137Z,23.83
2022-09-28T20:31:51.980Z,24.50
2022-09-28T20:34:19.495Z,23.57
2022-09-28T20:36:48.269Z,23.53
2022-09-28T20:39:15.825Z,24.00
2022-09-28T20:41:43.201Z,26.03
2022-09-28T20:44:10.597Z,25.37
2022-09-28T20:46:38.529Z,25.77
2022-09-28T20:49:07.057Z,26.60
2022-09-28T20:51:34.424Z,24.73
2022-09-28T20:54:03.117Z,25.23
2022-09-28T20:56:37.386Z,24.40
2022-09-28T20:59:05.138Z,26.70
2022-09-28T21:01:32.567Z,24.57
2022-09-28T21:04:01.404Z,25.10
2022-09-28T21:06:29.970Z,25.50
2022-09-28T21:08:57.443Z,25.87
2022-09-28T21:11:27.796Z,26.27
2022-09-28T21:13:56.996Z,26.03
2022-09-28T21:16:24.876Z,26.17
2022-09-28T21:18:52.631Z,26.57
2022-09-28T21:21:21.343Z,25.10
2022-09-28T21:23:48.998Z,27.07
2022-09-28T21:26:24.562Z,27.20
2022-09-28T21:28:53.852Z,26.83
2022-09-28T21:31:26.232Z,27.90
2022-09-28T21:33:56.040Z,26.97
2022-09-28T21:36:23.581Z,26.03
2022-09-28T21:38:51.085Z,28.37
2022-09-28T21:41:18.458Z,28.93
2022-09-28T21:43:46.433Z,26.73
2022-09-28T21:46:15.153Z,27.33
2022-09-28T21:48:42.549Z,26.67
2022-09-28T21:51:14.058Z,26.57
2022-09-28T21:53:42.504Z,28.40
2022-09-28T21:56:11.700Z,26.93
2022-09-28T21:58:39.961Z,27.90
2022-09-28T22:01:09.232Z,28.23
2022-09-28T22:03:37.980Z,28.70
2022-09-28T22:06:06.444Z,28.27
2022-09-28T22:08:33.862Z,27.93
2022-09-28T22:11:02.516Z,27.57
2022-09-28T22:13:30.334Z,28.07
2022-09-28T22:15:58.665Z,27.97
2022-09-28T22:18:26.778Z,26.93
2022-09-28T22:21:01.075Z,27.33
2022-09-28T22:23:28.801Z,27.87
2022-09-28T22:26:00.217Z,28.00
2022-09-28T22:28:27.880Z,27.37
2022-09-28T22:30:55.581Z,27.27
2022-09-28T22:33:22.933Z,28.03
2022-09-28T22:35:51.230Z,26.77
2022-09-28T22:38:20.745Z,27.17
2022-09-28T22:40:49.076Z,25.87
2022-09-28T22:43:16.776Z,27.03
2022-09-28T22:45:44.169Z,27.97
2022-09-28T22:48:11.720Z,27.73
2022-09-28T22:50:39.284Z,27.83
2022-09-28T22:53:06.923Z,27.03
2022-09-28T22:55:35.558Z,27.70
2022-09-28T22:58:02.907Z,27.40
2022-09-28T23:00:31.006Z,27.90
2022-09-28T23:02:58.397Z,27.97
2022-09-28T23:05:25.806Z,27.97
2022-09-28T23:07:53.166Z,28.93
2022-09-28T23:10:20.540Z,28.50
2022-09-28T23:12:49.454Z,28.10
2022-09-28T23:15:17.049Z,28.43
2022-09-28T23:17:44.381Z,28.53
2022-09-28T23:20:11.794Z,29.50
2022-09-28T23:22:39.149Z,28.87
2022-09-28T23:25:07.555Z,27.70
2022-09-28T23:27:34.882Z,27.17
2022-09-28T23:30:03.678Z,27.13
2022-09-28T23:32:32.150Z,28.90
2022-09-28T23:34:59.606Z,28.67
2022-09-28T23:37:26.919Z,27.37
2022-09-28T23:39:54.254Z,27.20
2022-09-28T23:42:21.671Z,28.03
2022-09-28T23:44:49.076Z,27.10
2022-09-28T23:47:17.778Z,26.13
2022-09-28T23:49:45.145Z,26.73
2022-09-28T23:52:12.447Z,25.87
2022-09-28T23:54:39.791Z,26.30
2022-09-28T23:57:07.149Z,24.93
2022-09-28T23:59:34.488Z,25.33
